createdAt,value
2022-08-25T00:01:08.651Z,101482.09
2022-08-25T00:03:35.885Z,101482.81
2022-08-25T00:06:07.001Z,101482.75
2022-08-25T00:08:35.106Z,101487.63
2022-08-25T00:11:03.495Z,101476.72
2022-08-25T00:13:30.359Z,101478.56
2022-08-25T00:15:57.621Z,101478.38
2022-08-25T00:18:24.386Z,101475.81
2022-08-25T00:20:51.509Z,101473.38
2022-08-25T00:23:19.693Z,101465.78
2022-08-25T00:25:46.294Z,101473.38
2022-08-25T00:28:13.982Z,101464.09
2022-08-25T00:30:40.702Z,101468.75
2022-08-25T00:33:07.284Z,101469.09
2022-08-25T00:35:33.807Z,101464.88
2022-08-25T00:38:00.445Z,101449.19
2022-08-25T00:40:28.594Z,101456.13
2022-08-25T00:42:56.252Z,101454.84
2022-08-25T00:45:23.805Z,101447.22
2022-08-25T00:47:50.462Z,101457.38
2022-08-25T00:50:17.349Z,101457.56
2022-08-25T00:52:48.077Z,101459.28
2022-08-25T00:55:21.284Z,101454.59
2022-08-25T00:58:19.967Z,101456.53
2022-08-25T01:00:50.306Z,101461.56
2022-08-25T01:03:19.199Z,101459.22
2022-08-25T01:09:47.850Z,101468.69
2022-08-25T01:12:14.682Z,101467.59
2022-08-25T01:14:42.488Z,101467.69
2022-08-25T01:17:09.575Z,101463.50
2022-08-25T01:19:36.219Z,101468.59
2022-08-25T01:22:02.927Z,101462.81
2022-08-25T01:24:38.803Z,101465.69
2022-08-25T01:27:06.446Z,101457.69
2022-08-25T01:29:33.473Z,101457.09
2022-08-25T01:32:07.011Z,101466.56
2022-08-25T01:34:36.594Z,101460.28
2022-08-25T01:37:04.146Z,101469.09
2022-08-25T01:39:33.950Z,101459.66
2022-08-25T01:42:09.524Z,101458.56
2022-08-25T01:44:40.202Z,101466.53
2022-08-25T01:47:08.008Z,101467.38
2022-08-25T01:49:35.641Z,101465.25
2022-08-25T01:52:25.555Z,101465.59
2022-08-25T01:54:52.116Z,101455.13
2022-08-25T01:57:18.636Z,101458.66
2022-08-25T01:59:45.217Z,101450.50
2022-08-25T02:02:12.054Z,101456.44
2022-08-25T02:04:39.484Z,101450.91
2022-08-25T02:07:08.960Z,101444.19
2022-08-25T02:09:37.488Z,101453.09
2022-08-25T02:12:04.544Z,101445.81
2022-08-25T02:14:31.045Z,101443.09
2022-08-25T02:16:57.719Z,101447.22
2022-08-25T02:19:26.104Z,101443.41
2022-08-25T02:21:53.532Z,101440.88
2022-08-25T02:24:20.249Z,101436.47
2022-08-25T02:26:46.802Z,101431.66
2022-08-25T02:29:13.653Z,101432.47
2022-08-25T02:31:40.409Z,101437.69
2022-08-25T02:34:08.730Z,101434.56
2022-08-25T02:36:36.027Z,101436.28
2022-08-25T02:39:04.082Z,101430.38
2022-08-25T02:41:31.827Z,101425.09
2022-08-25T02:44:00.136Z,101422.34
2022-08-25T02:46:27.664Z,101428.06
2022-08-25T02:48:55.291Z,101420.88
2022-08-25T02:51:23.739Z,101425.09
2022-08-25T02:53:50.460Z,101421.97
2022-08-25T02:56:18.747Z,101420.53
2022-08-25T02:58:46.366Z,101424.50
2022-08-25T03:01:13.743Z,101420.25
2022-08-25T03:03:43.574Z,101411.25
2022-08-25T03:06:12.674Z,101416.88
2022-08-25T03:08:39.624Z,101418.16
2022-08-25T03:11:07.005Z,101411.41
2022-08-25T03:13:33.859Z,101402.59
2022-08-25T03:16:01.218Z,101407.78
2022-08-25T03:18:30.222Z,101407.25
2022-08-25T03:20:57.755Z,101410.53
2022-08-25T03:23:24.646Z,101403.47
2022-08-25T03:26:09.522Z,101405.94
2022-08-25T03:28:36.476Z,101402.16
2022-08-25T03:31:03.232Z,101400.00
2022-08-25T03:33:31.044Z,101390.88
2022-08-25T03:35:59.092Z,101392.09
2022-08-25T03:38:26.964Z,101391.41
2022-08-25T03:40:54.037Z,101382.03
2022-08-25T03:43:21.273Z,101390.00
2022-08-25T03:45:48.015Z,101385.97
2022-08-25T03:48:16.142Z,101384.88
2022-08-25T03:50:51.738Z,101387.28
2022-08-25T03:53:19.838Z,101398.22
2022-08-25T03:55:46.586Z,101390.59
2022-08-25T03:58:13.216Z,101389.88
2022-08-25T04:00:39.899Z,101397.44
2022-08-25T04:03:06.738Z,101396.19
2022-08-25T04:05:33.654Z,101399.97
2022-08-25T04:08:01.907Z,101402.91
2022-08-25T04:10:29.381Z,101395.81
2022-08-25T04:12:56.164Z,101399.13
2022-08-25T04:15:22.742Z,101407.72
2022-08-25T04:17:50.534Z,101410.44
2022-08-25T04:20:19.045Z,101406.31
2022-08-25T04:22:45.555Z,101403.66
2022-08-25T04:25:12.886Z,101411.63
2022-08-25T04:27:39.496Z,101406.94
2022-08-25T04:30:06.967Z,101415.63
2022-08-25T04:32:36.279Z,101412.25
2022-08-25T04:35:05.156Z,101410.97
2022-08-25T04:37:31.708Z,101416.69
2022-08-25T04:39:58.272Z,101415.41
2022-08-25T04:42:26.926Z,101421.66
2022-08-25T04:44:54.374Z,101414.38
2022-08-25T04:47:20.916Z,101415.25
2022-08-25T04:49:47.826Z,101420.03
2022-08-25T04:52:14.750Z,101417.94
2022-08-25T04:54:42.159Z,101415.50
2022-08-25T04:57:08.697Z,101413.13
2022-08-25T04:59:35.291Z,101412.50
2022-08-25T05:02:03.335Z,101405.84
2022-08-25T05:04:30.934Z,101411.28
2022-08-25T05:06:58.043Z,101404.84
2022-08-25T05:09:25.803Z,101404.66
2022-08-25T05:11:53.733Z,101415.78
2022-08-25T05:14:22.192Z,101413.63
2022-08-25T05:16:53.881Z,101419.25
2022-08-25T05:19:20.397Z,101421.91
2022-08-25T05:21:47.143Z,101417.78
2022-08-25T05:24:13.626Z,101423.63
2022-08-25T05:26:40.161Z,101425.84
2022-08-25T05:29:07.163Z,101426.75
2022-08-25T05:31:36.404Z,101425.91
2022-08-25T05:34:07.853Z,101425.16
2022-08-25T05:36:34.887Z,101431.03
2022-08-25T05:39:01.736Z,101424.44
2022-08-25T05:41:30.436Z,101425.59
2022-08-25T05:43:57.846Z,101425.31
2022-08-25T05:46:25.333Z,101433.34
2022-08-25T05:48:52.174Z,101443.56
2022-08-25T05:51:19.867Z,101438.63
2022-08-25T05:53:48.475Z,101426.59
2022-08-25T05:56:15.466Z,101434.28
2022-08-25T05:58:43.361Z,101434.13
2022-08-25T06:01:36.674Z,101430.34
2022-08-25T06:04:03.463Z,101432.59
2022-08-25T06:06:30.048Z,101438.63
2022-08-25T06:08:56.675Z,101434.97
2022-08-25T06:11:23.515Z,101431.78
2022-08-25T06:13:50.047Z,101433.53
2022-08-25T06:16:16.617Z,101437.78
2022-08-25T06:18:43.245Z,101435.38
2022-08-25T06:21:12.796Z,101432.25
2022-08-25T06:23:39.859Z,101432.81
2022-08-25T06:26:09.639Z,101434.91
2022-08-25T06:28:39.650Z,101421.28
2022-08-25T06:31:06.526Z,101427.66
2022-08-25T06:33:33.093Z,101430.88
2022-08-25T06:35:59.948Z,101435.06
2022-08-25T06:38:27.245Z,101441.06
2022-08-25T06:40:54.220Z,101453.03
2022-08-25T06:43:21.897Z,101446.06
2022-08-25T06:45:48.647Z,101444.44
2022-08-25T06:48:15.910Z,101453.47
2022-08-25T06:50:43.303Z,101448.66
2022-08-25T06:53:10.400Z,101448.34
2022-08-25T06:55:37.138Z,101448.03
2022-08-25T06:58:04.965Z,101451.69
2022-08-25T07:00:32.465Z,101454.47
2022-08-25T07:03:01.400Z,101455.31
2022-08-25T07:05:40.797Z,101443.72
2022-08-25T07:08:11.692Z,101452.13
2022-08-25T07:10:38.352Z,101441.25
2022-08-25T07:13:04.825Z,101435.19
2022-08-25T07:15:31.357Z,101434.72
2022-08-25T07:17:58.096Z,101439.41
2022-08-25T07:22:56.074Z,101437.94
2022-08-25T07:25:24.114Z,101433.47
2022-08-25T07:27:50.659Z,101433.13
2022-08-25T07:30:17.475Z,101430.75
2022-08-25T07:32:43.947Z,101432.19
2022-08-25T07:35:19.011Z,101433.88
2022-08-25T07:38:06.638Z,101433.13
2022-08-25T07:40:37.598Z,101426.50
2022-08-25T07:43:09.531Z,101432.22
2022-08-25T07:45:42.110Z,101429.31
2022-08-25T07:48:17.771Z,101430.06
2022-08-25T07:50:45.662Z,101431.03
2022-08-25T07:53:13.965Z,101427.31
2022-08-25T07:55:41.773Z,101432.13
2022-08-25T07:58:12.335Z,101429.75
2022-08-25T08:00:40.502Z,101431.94
2022-08-25T08:03:12.931Z,101431.88
2022-08-25T08:05:50.548Z,101428.78
2022-08-25T08:08:17.218Z,101427.50
2022-08-25T08:11:03.301Z,101425.59
2022-08-25T08:13:31.853Z,101421.50
2022-08-25T08:15:58.460Z,101421.19
2022-08-25T08:18:24.992Z,101424.13
2022-08-25T08:20:51.466Z,101429.09
2022-08-25T08:23:18.174Z,101428.47
2022-08-25T08:25:44.638Z,101415.16
2022-08-25T08:28:11.816Z,101413.88
2022-08-25T08:30:38.434Z,101418.28
2022-08-25T08:33:10.034Z,101406.31
2022-08-25T08:35:38.186Z,101410.09
2022-08-25T08:38:08.962Z,101412.16
2022-08-25T08:41:26.317Z,101402.78
2022-08-25T08:46:49.232Z,101399.59
2022-08-25T08:49:46.674Z,101398.31
2022-08-25T08:52:17.178Z,101398.50
2022-08-25T08:54:49.609Z,101400.78
2022-08-25T08:57:19.625Z,101397.81
2022-08-25T08:59:54.146Z,101393.41
2022-08-25T09:02:39.438Z,101385.97
2022-08-25T09:05:20.561Z,101398.25
2022-08-25T09:07:56.070Z,101401.16
2022-08-25T09:10:26.087Z,101383.75
2022-08-25T09:13:17.116Z,101387.88
2022-08-25T09:16:23.337Z,101390.31
2022-08-25T09:19:23.637Z,101387.41
2022-08-25T09:22:35.164Z,101382.31
2022-08-25T09:25:29.606Z,101382.81
2022-08-25T09:28:28.219Z,101370.78
2022-08-25T09:31:00.457Z,101377.47
2022-08-25T09:33:31.461Z,101379.56
2022-08-25T09:36:01.879Z,101381.78
2022-08-25T09:38:32.504Z,101382.47
2022-08-25T09:41:01.032Z,101369.34
2022-08-25T09:43:28.204Z,101368.63
2022-08-25T09:46:08.745Z,101380.22
2022-08-25T09:48:44.797Z,101376.88
2022-08-25T09:51:23.906Z,101364.84
2022-08-25T09:54:13.719Z,101368.34
2022-08-25T09:56:56.205Z,101354.72
2022-08-25T09:59:34.347Z,101366.66
2022-08-25T10:02:25.114Z,101361.47
2022-08-25T10:04:52.823Z,101361.28
2022-08-25T10:07:34.599Z,101356.59
2022-08-25T10:10:07.650Z,101356.06
2022-08-25T10:12:44.114Z,101352.91
2022-08-25T10:15:29.365Z,101362.72
2022-08-25T10:18:16.036Z,101345.72
2022-08-25T10:20:44.712Z,101347.84
2022-08-25T10:23:14.069Z,101338.75
2022-08-25T10:25:59.294Z,101355.28
2022-08-25T10:28:41.525Z,101350.75
2022-08-25T10:31:35.838Z,101351.16
2022-08-25T10:34:31.361Z,101346.88
2022-08-25T10:37:20.659Z,101347.16
2022-08-25T10:39:55.529Z,101351.16
2022-08-25T10:42:45.802Z,101334.97
2022-08-25T10:45:37.944Z,101332.09
2022-08-25T10:48:18.521Z,101322.69
2022-08-25T10:51:25.553Z,101324.50
2022-08-25T10:54:02.227Z,101304.25
2022-08-25T10:56:34.954Z,101304.91
2022-08-25T10:59:07.215Z,101305.69
2022-08-25T11:02:06.638Z,101308.94
2022-08-25T11:04:59.558Z,101300.97
2022-08-25T11:07:33.562Z,101300.00
2022-08-25T11:10:15.185Z,101300.38
2022-08-25T11:12:50.126Z,101306.56
2022-08-25T11:15:24.120Z,101294.94
2022-08-25T11:18:05.270Z,101295.53
2022-08-25T11:21:13.137Z,101291.81
2022-08-25T11:23:48.088Z,101274.66
2022-08-25T11:26:20.750Z,101284.31
2022-08-25T11:29:04.198Z,101280.72
2022-08-25T11:31:31.156Z,101284.41
2022-08-25T11:33:58.885Z,101283.75
2022-08-25T11:36:33.071Z,101283.44
2022-08-25T11:38:59.740Z,101274.16
2022-08-25T11:41:58.083Z,101262.72
2022-08-25T11:44:53.022Z,101265.34
2022-08-25T11:47:58.903Z,101274.69
2022-08-25T11:50:33.130Z,101275.22
2022-08-25T11:53:37.891Z,101273.31
2022-08-25T11:56:31.543Z,101264.53
2022-08-25T11:58:59.435Z,101261.91
2022-08-25T12:01:32.481Z,101266.22
2022-08-25T12:04:33.706Z,101252.09
2022-08-25T12:07:22.658Z,101241.53
2022-08-25T12:10:10.654Z,101252.34
2022-08-25T12:12:59.351Z,101244.47
2022-08-25T12:15:25.879Z,101240.69
2022-08-25T12:18:21.960Z,101232.94
2022-08-25T12:20:57.525Z,101228.88
2022-08-25T12:23:35.158Z,101229.47
2022-08-25T12:26:28.878Z,101227.94
2022-08-25T12:28:58.893Z,101220.88
2022-08-25T12:31:43.034Z,101217.28
2022-08-25T12:34:38.608Z,101215.75
2022-08-25T12:37:13.279Z,101211.41
2022-08-25T12:39:52.397Z,101219.81
2022-08-25T12:42:25.324Z,101203.59
2022-08-25T12:45:20.160Z,101209.69
2022-08-25T12:47:48.643Z,101208.50
2022-08-25T12:50:32.359Z,101204.31
2022-08-25T12:53:24.481Z,101199.44
2022-08-25T12:56:02.735Z,101204.47
2022-08-25T12:58:59.918Z,101206.13
2022-08-25T13:01:41.956Z,101193.59
2022-08-25T13:04:17.132Z,101202.97
2022-08-25T13:07:02.244Z,101197.75
2022-08-25T13:09:49.276Z,101192.41
2022-08-25T13:12:25.846Z,101187.38
2022-08-25T13:14:55.330Z,101182.38
2022-08-25T13:17:37.951Z,101177.53
2022-08-25T13:20:29.261Z,101173.56
2022-08-25T13:22:59.369Z,101169.16
2022-08-25T13:25:32.322Z,101165.47
2022-08-25T13:28:03.209Z,101162.13
2022-08-25T13:30:33.091Z,101163.59
2022-08-25T13:33:00.304Z,101162.84
2022-08-25T13:35:32.779Z,101162.09
2022-08-25T13:38:13.700Z,101154.94
2022-08-25T13:40:40.887Z,101155.97
2022-08-25T13:43:12.537Z,101152.69
2022-08-25T13:45:43.531Z,101150.88
2022-08-25T13:48:22.529Z,101147.72
2022-08-25T13:50:52.063Z,101147.97
2022-08-25T13:53:25.443Z,101140.69
2022-08-25T13:55:57.159Z,101139.09
2022-08-25T13:58:39.421Z,101140.53
2022-08-25T14:01:23.142Z,101142.97
2022-08-25T14:04:22.459Z,101144.81
2022-08-25T14:06:49.572Z,101140.53
2022-08-25T14:09:18.441Z,101142.88
2022-08-25T14:11:58.511Z,101141.44
2022-08-25T14:14:24.910Z,101131.44
2022-08-25T14:16:58.923Z,101128.59
2022-08-25T14:19:26.258Z,101131.22
2022-08-25T14:21:56.552Z,101124.44
2022-08-25T14:24:23.859Z,101129.13
2022-08-25T14:26:54.642Z,101127.28
2022-08-25T14:29:22.298Z,101120.19
2022-08-25T14:31:50.009Z,101113.44
2022-08-25T14:34:32.799Z,101106.09
2022-08-25T14:37:02.102Z,101108.44
2022-08-25T14:39:29.270Z,101092.94
2022-08-25T14:41:56.144Z,101095.25
2022-08-25T14:44:22.734Z,101098.63
2022-08-25T14:46:54.230Z,101093.56
2022-08-25T14:49:29.677Z,101087.34
2022-08-25T14:52:08.265Z,101085.91
2022-08-25T14:54:37.581Z,101083.28
2022-08-25T14:57:04.370Z,101086.97
2022-08-25T14:59:35.016Z,101081.06
2022-08-25T15:02:01.863Z,101074.38
2022-08-25T15:04:30.081Z,101067.22
2022-08-25T15:07:01.689Z,101073.47
2022-08-25T15:09:33.742Z,101075.94
2022-08-25T15:12:00.425Z,101074.63
2022-08-25T15:14:29.228Z,101078.47
2022-08-25T15:17:01.673Z,101068.84
2022-08-25T15:19:29.042Z,101072.88
2022-08-25T15:21:57.828Z,101062.03
2022-08-25T15:24:27.690Z,101059.56
2022-08-25T15:27:00.281Z,101053.00
2022-08-25T15:29:30.115Z,101065.66
2022-08-25T15:31:57.954Z,101059.22
2022-08-25T15:34:24.454Z,101059.63
2022-08-25T15:36:51.307Z,101057.13
2022-08-25T15:39:19.201Z,101062.28
2022-08-25T15:41:52.483Z,101059.06
2022-08-25T15:44:19.776Z,101043.97
2022-08-25T15:46:47.155Z,101053.69
2022-08-25T15:49:16.209Z,101046.56
2022-08-25T15:51:50.299Z,101050.16
2022-08-25T15:54:17.063Z,101033.63
2022-08-25T15:56:44.361Z,101028.56
2022-08-25T15:59:13.410Z,101027.28
2022-08-25T16:01:41.320Z,101031.31
2022-08-25T16:04:07.920Z,101025.28
2022-08-25T16:06:34.473Z,101017.50
2022-08-25T16:09:01.379Z,101025.25
2022-08-25T16:11:30.861Z,101015.13
2022-08-25T16:13:57.758Z,101015.94
2022-08-25T16:16:26.740Z,101016.16
2022-08-25T16:18:54.043Z,101015.81
2022-08-25T16:21:25.678Z,101019.78
2022-08-25T16:23:58.507Z,101008.19
2022-08-25T16:26:25.862Z,101004.63
2022-08-25T16:28:52.945Z,101006.63
2022-08-25T16:31:20.613Z,101010.03
2022-08-25T16:33:48.204Z,101007.44
2022-08-25T16:36:21.527Z,100992.91
2022-08-25T16:38:49.532Z,100996.31
2022-08-25T16:41:22.964Z,100987.59
2022-08-25T16:43:50.390Z,100991.34
2022-08-25T16:46:19.567Z,100990.31
2022-08-25T16:48:46.977Z,100995.13
2022-08-25T16:51:16.219Z,100993.13
2022-08-25T16:54:04.983Z,100988.00
2022-08-25T16:56:35.027Z,100990.91
2022-08-25T16:59:03.368Z,100997.22
2022-08-25T17:01:34.056Z,100994.63
2022-08-25T17:04:01.272Z,100985.72
2022-08-25T17:06:29.648Z,100995.75
2022-08-25T17:08:56.236Z,100992.78
2022-08-25T17:11:26.849Z,100994.63
2022-08-25T17:13:56.922Z,100993.75
2022-08-25T17:16:27.934Z,100994.91
2022-08-25T17:18:55.293Z,100993.28
2022-08-25T17:21:24.255Z,100995.28
2022-08-25T17:23:52.575Z,100992.53
2022-08-25T17:26:19.819Z,100995.66
2022-08-25T17:28:54.163Z,100996.06
2022-08-25T17:31:21.161Z,100995.31
2022-08-25T17:33:48.062Z,100990.75
2022-08-25T17:36:17.325Z,100996.19
2022-08-25T17:38:45.003Z,100997.72
2022-08-25T17:41:14.596Z,100997.66
2022-08-25T17:43:43.632Z,100996.63
2022-08-25T17:46:11.773Z,100996.06
2022-08-25T17:48:43.860Z,100999.72
2022-08-25T17:51:11.088Z,100995.38
2022-08-25T17:53:38.470Z,101001.03
2022-08-25T17:56:11.617Z,100994.16
2022-08-25T17:58:38.241Z,100995.06
2022-08-25T18:01:05.673Z,100992.63
2022-08-25T18:03:33.012Z,101001.47
2022-08-25T18:06:00.356Z,101008.72
2022-08-25T18:08:32.016Z,101009.56
2022-08-25T18:11:02.168Z,101009.09
2022-08-25T18:13:29.344Z,101015.50
2022-08-25T18:15:55.842Z,101005.88
2022-08-25T18:18:24.208Z,101011.91
2022-08-25T18:20:50.986Z,101009.91
2022-08-25T18:23:19.501Z,101016.56
2022-08-25T18:25:48.582Z,101018.47
2022-08-25T18:28:15.463Z,101016.56
2022-08-25T18:30:42.448Z,101013.22
2022-08-25T18:33:09.738Z,101014.81
2022-08-25T18:35:36.275Z,101020.28
2022-08-25T18:38:23.712Z,101021.34
2022-08-25T18:40:57.956Z,101016.47
2022-08-25T18:43:24.907Z,101022.03
2022-08-25T18:45:51.493Z,101027.19
2022-08-25T18:48:20.505Z,101027.19
2022-08-25T18:50:50.547Z,101025.38
2022-08-25T18:53:19.221Z,101034.00
2022-08-25T18:55:58.074Z,101029.00
2022-08-25T18:58:26.230Z,101029.91
2022-08-25T19:00:52.713Z,101040.53
2022-08-25T19:03:22.314Z,101035.91
2022-08-25T19:05:55.037Z,101032.66
2022-08-25T19:08:24.675Z,101037.03
2022-08-25T19:10:53.515Z,101031.00
2022-08-25T19:13:22.661Z,101035.78
2022-08-25T19:15:51.702Z,101031.72
2022-08-25T19:18:25.941Z,101040.25
2022-08-25T19:20:56.127Z,101035.66
2022-08-25T19:23:22.588Z,101039.22
2022-08-25T19:25:49.120Z,101036.59
2022-08-25T19:28:17.229Z,101039.56
2022-08-25T19:30:50.355Z,101041.25
2022-08-25T19:33:42.180Z,101050.41
2022-08-25T19:36:06.397Z,101034.34
2022-08-25T19:38:37.523Z,101044.22
2022-08-25T19:41:09.381Z,101047.78
2022-08-25T19:43:54.962Z,101038.84
2022-08-25T19:46:28.945Z,101036.84
2022-08-25T19:49:09.193Z,101040.19
2022-08-25T19:51:45.657Z,101043.03
2022-08-25T19:54:15.308Z,101040.88
2022-08-25T19:56:43.508Z,101036.97
2022-08-25T19:59:10.961Z,101042.56
2022-08-25T20:01:37.533Z,101040.19
2022-08-25T20:04:06.920Z,101042.91
2022-08-25T20:06:33.473Z,101042.19
2022-08-25T20:09:00.640Z,101038.88
2022-08-25T20:11:29.089Z,101045.16
2022-08-25T20:14:00.372Z,101039.00
2022-08-25T20:16:30.180Z,101039.34
2022-08-25T20:18:56.720Z,101041.00
2022-08-25T20:21:24.000Z,101040.66
2022-08-25T20:24:09.312Z,101035.38
2022-08-25T20:26:36.610Z,101041.38
2022-08-25T20:29:04.989Z,101039.47
2022-08-25T20:31:32.505Z,101038.63
2022-08-25T20:34:02.887Z,101037.41
2022-08-25T20:36:30.018Z,101045.03
2022-08-25T20:38:59.143Z,101040.47
2022-08-25T20:41:26.048Z,101035.81
2022-08-25T20:43:52.600Z,101032.63
2022-08-25T20:46:19.285Z,101034.28
2022-08-25T20:48:45.939Z,101031.28
2022-08-25T20:51:13.183Z,101033.91
2022-08-25T20:53:42.402Z,101020.22
2022-08-25T20:56:14.703Z,101024.00
2022-08-25T20:58:42.545Z,101028.44
2022-08-25T21:01:23.077Z,101023.53
2022-08-25T21:03:50.479Z,101019.38
2022-08-25T21:06:17.404Z,101023.44
2022-08-25T21:08:46.557Z,101019.97
2022-08-25T21:11:15.620Z,101021.34
2022-08-25T21:13:42.076Z,101016.50
2022-08-25T21:16:09.208Z,101016.00
2022-08-25T21:18:36.569Z,101022.81
2022-08-25T21:21:12.263Z,101027.44
2022-08-25T21:23:39.502Z,101016.97
2022-08-25T21:26:06.771Z,101014.53
2022-08-25T21:28:34.573Z,101022.16
2022-08-25T21:31:02.062Z,101013.50
2022-08-25T21:33:28.733Z,101014.06
2022-08-25T21:35:55.994Z,101009.22
2022-08-25T21:38:22.508Z,101001.59
2022-08-25T21:40:49.245Z,101007.13
2022-08-25T21:43:16.200Z,101006.75
2022-08-25T21:45:46.862Z,101011.75
2022-08-25T21:48:14.072Z,101008.28
2022-08-25T21:50:41.095Z,100999.84
2022-08-25T21:53:09.700Z,101000.78
2022-08-25T21:55:41.907Z,101000.78
2022-08-25T21:58:08.845Z,101004.25
2022-08-25T22:00:35.967Z,101008.41
2022-08-25T22:03:02.855Z,101005.59
2022-08-25T22:05:29.366Z,101005.53
2022-08-25T22:07:55.894Z,101004.72
2022-08-25T22:10:22.673Z,101001.53
2022-08-25T22:12:49.840Z,101000.00
2022-08-25T22:15:17.899Z,100992.06
2022-08-25T22:17:45.484Z,100998.63
2022-08-25T22:20:16.689Z,100990.31
2022-08-25T22:22:43.208Z,100986.50
2022-08-25T22:25:10.306Z,100984.84
2022-08-25T22:27:37.340Z,100990.41
2022-08-25T22:30:05.651Z,100985.44
2022-08-25T22:32:32.227Z,100986.72
2022-08-25T22:34:58.771Z,100979.28
2022-08-25T22:37:25.591Z,100977.00
2022-08-25T22:39:52.267Z,100975.56
2022-08-25T22:42:19.048Z,100978.56
2022-08-25T22:44:53.827Z,100973.56
2022-08-25T22:47:20.695Z,100981.88
2022-08-25T22:49:47.192Z,100975.94
2022-08-25T22:52:14.397Z,100968.63
2022-08-25T22:54:41.797Z,100963.81
2022-08-25T22:57:08.353Z,100974.47
2022-08-25T22:59:34.874Z,100969.75
2022-08-25T23:02:01.587Z,100958.44
2022-08-25T23:04:28.226Z,100963.66
2022-08-25T23:06:55.131Z,100966.34
2022-08-25T23:09:21.948Z,100961.91
2022-08-25T23:11:51.304Z,100969.38
2022-08-25T23:14:18.450Z,100971.56
2022-08-25T23:16:45.098Z,100958.44
2022-08-25T23:19:13.745Z,100954.25
2022-08-25T23:22:00.117Z,100956.44
2022-08-25T23:24:29.682Z,100958.44
2022-08-25T23:27:01.312Z,100948.78
2022-08-25T23:29:28.690Z,100951.06
2022-08-25T23:31:56.610Z,100947.63
2022-08-25T23:34:24.761Z,100945.47
2022-08-25T23:36:51.646Z,100944.16
2022-08-25T23:39:18.332Z,100942.63
2022-08-25T23:41:44.990Z,100941.75
2022-08-25T23:44:17.429Z,100935.00
2022-08-25T23:46:44.923Z,100928.44
2022-08-25T23:49:11.957Z,100939.03
2022-08-25T23:51:38.629Z,100924.09
2022-08-25T23:54:09.652Z,100921.75
2022-08-25T23:56:42.367Z,100925.72
2022-08-25T23:59:13.015Z,100932.91
